sensor_id;sensor_type;location;lat;lon;timestamp;temperature;humidity
7399;DHT22;3740;50.700;7.184;2023-11-21T00:00:15;10.70;99.90
7399;DHT22;3740;50.700;7.184;2023-11-21T00:02:42;10.70;99.90
7399;DHT22;3740;50.700;7.184;2023-11-21T00:05:09;10.70;99.90
7399;DHT22;3740;50.700;7.184;2023-11-21T00:07:38;10.70;99.90
7399;DHT22;3740;50.700;7.184;2023-11-21T00:10:04;10.70;99.90
7399;DHT22;3740;50.700;7.184;2023-11-21T00:12:31;10.70;99.90
7399;DHT22;3740;50.700;7.184;2023-11-21T00:14:57;10.70;99.90
7399;DHT22;3740;50.700;7.184;2023-11-21T00:17:23;10.70;99.90
7399;DHT22;3740;50.700;7.184;2023-11-21T00:19:49;10.70;99.90
7399;DHT22;3740;50.700;7.184;2023-11-21T00:22:17;10.70;99.90
7399;DHT22;3740;50.700;7.184;2023-11-21T00:24:43;10.60;99.90
7399;DHT22;3740;50.700;7.184;2023-11-21T00:27:09;10.60;99.90
7399;DHT22;3740;50.700;7.184;2023-11-21T00:29:35;10.60;99.90
7399;DHT22;3740;50.700;7.184;2023-11-21T00:32:00;10.60;99.90
7399;DHT22;3740;50.700;7.184;2023-11-21T00:34:26;10.60;99.90
7399;DHT22;3740;50.700;7.184;2023-11-21T00:36:51;10.60;99.90
7399;DHT22;3740;50.700;7.184;2023-11-21T00:39:17;10.60;99.90
7399;DHT22;3740;50.700;7.184;2023-11-21T00:41:43;10.60;99.90
7399;DHT22;3740;50.700;7.184;2023-11-21T00:44:10;10.60;99.90
7399;DHT22;3740;50.700;7.184;2023-11-21T00:46:36;10.60;99.90
7399;DHT22;3740;50.700;7.184;2023-11-21T00:49:02;10.60;99.90
7399;DHT22;3740;50.700;7.184;2023-11-21T00:51:29;10.70;99.90
7399;DHT22;3740;50.700;7.184;2023-11-21T00:53:55;10.60;99.90
7399;DHT22;3740;50.700;7.184;2023-11-21T00:56:21;10.70;99.90
7399;DHT22;3740;50.700;7.184;2023-11-21T00:58:47;10.70;99.90
7399;DHT22;3740;50.700;7.184;2023-11-21T01:01:15;10.70;99.90
7399;DHT22;3740;50.700;7.184;2023-11-21T01:03:41;10.60;99.90
7399;DHT22;3740;50.700;7.184;2023-11-21T01:06:07;10.60;99.90
7399;DHT22;3740;50.700;7.184;2023-11-21T01:08:34;10.60;99.90
7399;DHT22;3740;50.700;7.184;2023-11-21T01:10:59;10.70;99.90
7399;DHT22;3740;50.700;7.184;2023-11-21T01:13:25;10.70;99.90
7399;DHT22;3740;50.700;7.184;2023-11-21T01:15:53;10.70;99.90
7399;DHT22;3740;50.700;7.184;2023-11-21T01:18:18;10.70;99.90
7399;DHT22;3740;50.700;7.184;2023-11-21T01:20:44;10.70;99.90
7399;DHT22;3740;50.700;7.184;2023-11-21T01:23:12;10.70;99.90
7399;DHT22;3740;50.700;7.184;2023-11-21T01:25:38;10.70;99.90
7399;DHT22;3740;50.700;7.184;2023-11-21T01:28:03;10.60;99.90
7399;DHT22;3740;50.700;7.184;2023-11-21T01:30:29;10.60;99.90
7399;DHT22;3740;50.700;7.184;2023-11-21T01:32:55;10.60;99.90
7399;DHT22;3740;50.700;7.184;2023-11-21T01:35:20;10.60;99.90
7399;DHT22;3740;50.700;7.184;2023-11-21T01:37:46;10.70;99.90
7399;DHT22;3740;50.700;7.184;2023-11-21T01:40:13;10.60;99.90
7399;DHT22;3740;50.700;7.184;2023-11-21T01:42:40;10.70;99.90
7399;DHT22;3740;50.700;7.184;2023-11-21T01:45:07;10.70;99.90
7399;DHT22;3740;50.700;7.184;2023-11-21T01:47:33;10.70;99.90
7399;DHT22;3740;50.700;7.184;2023-11-21T01:50:01;10.70;99.90
7399;DHT22;3740;50.700;7.184;2023-11-21T01:52:29;10.70;99.90
7399;DHT22;3740;50.700;7.184;2023-11-21T01:54:55;10.70;99.90
7399;DHT22;3740;50.700;7.184;2023-11-21T01:57:22;10.70;99.90
7399;DHT22;3740;50.700;7.184;2023-11-21T01:59:48;10.70;99.90
7399;DHT22;3740;50.700;7.184;2023-11-21T02:02:15;10.60;99.90
7399;DHT22;3740;50.700;7.184;2023-11-21T02:04:41;10.60;99.90
7399;DHT22;3740;50.700;7.184;2023-11-21T02:07:06;10.60;99.90
7399;DHT22;3740;50.700;7.184;2023-11-21T02:09:32;10.60;99.90
7399;DHT22;3740;50.700;7.184;2023-11-21T02:12:03;10.60;99.90
7399;DHT22;3740;50.700;7.184;2023-11-21T02:14:30;10.60;99.90
7399;DHT22;3740;50.700;7.184;2023-11-21T02:16:56;10.60;99.90
7399;DHT22;3740;50.700;7.184;2023-11-21T02:19:23;10.60;99.90
7399;DHT22;3740;50.700;7.184;2023-11-21T02:21:52;10.70;99.90
7399;DHT22;3740;50.700;7.184;2023-11-21T02:24:26;10.70;99.90
7399;DHT22;3740;50.700;7.184;2023-11-21T02:26:52;10.60;99.90
7399;DHT22;3740;50.700;7.184;2023-11-21T02:29:19;10.60;99.90
7399;DHT22;3740;50.700;7.184;2023-11-21T02:31:48;10.70;99.90
7399;DHT22;3740;50.700;7.184;2023-11-21T02:34:17;10.60;99.90
7399;DHT22;3740;50.700;7.184;2023-11-21T02:36:44;10.60;99.90
7399;DHT22;3740;50.700;7.184;2023-11-21T02:39:12;10.60;99.90
7399;DHT22;3740;50.700;7.184;2023-11-21T02:41:38;10.50;99.90
7399;DHT22;3740;50.700;7.184;2023-11-21T02:44:05;10.50;99.90
7399;DHT22;3740;50.700;7.184;2023-11-21T02:46:32;10.60;99.90
7399;DHT22;3740;50.700;7.184;2023-11-21T02:49:02;10.60;99.90
7399;DHT22;3740;50.700;7.184;2023-11-21T02:51:28;10.60;99.90
7399;DHT22;3740;50.700;7.184;2023-11-21T02:53:54;10.60;99.90
7399;DHT22;3740;50.700;7.184;2023-11-21T02:56:24;10.60;99.90
7399;DHT22;3740;50.700;7.184;2023-11-21T02:58:50;10.60;99.90
7399;DHT22;3740;50.700;7.184;2023-11-21T03:01:15;10.60;99.90
7399;DHT22;3740;50.700;7.184;2023-11-21T03:03:42;10.60;99.90
7399;DHT22;3740;50.700;7.184;2023-11-21T03:06:08;10.50;99.90
7399;DHT22;3740;50.700;7.184;2023-11-21T03:08:34;10.50;99.90
7399;DHT22;3740;50.700;7.184;2023-11-21T03:11:00;10.50;99.90
7399;DHT22;3740;50.700;7.184;2023-11-21T03:13:25;10.50;99.90
7399;DHT22;3740;50.700;7.184;2023-11-21T03:15:51;10.50;99.90
7399;DHT22;3740;50.700;7.184;2023-11-21T03:18:16;10.50;99.90
7399;DHT22;3740;50.700;7.184;2023-11-21T03:20:43;10.50;99.90
7399;DHT22;3740;50.700;7.184;2023-11-21T03:23:11;10.50;99.90
7399;DHT22;3740;50.700;7.184;2023-11-21T03:25:37;10.50;99.90
7399;DHT22;3740;50.700;7.184;2023-11-21T03:28:03;10.50;99.90
7399;DHT22;3740;50.700;7.184;2023-11-21T03:30:28;10.50;99.90
7399;DHT22;3740;50.700;7.184;2023-11-21T03:32:54;10.50;99.90
7399;DHT22;3740;50.700;7.184;2023-11-21T03:35:20;10.50;99.90
7399;DHT22;3740;50.700;7.184;2023-11-21T03:37:46;10.50;99.90
7399;DHT22;3740;50.700;7.184;2023-11-21T03:40:12;10.50;99.90
7399;DHT22;3740;50.700;7.184;2023-11-21T03:42:38;10.50;99.90
7399;DHT22;3740;50.700;7.184;2023-11-21T03:45:05;10.50;99.90
7399;DHT22;3740;50.700;7.184;2023-11-21T03:47:31;10.40;99.90
7399;DHT22;3740;50.700;7.184;2023-11-21T03:49:56;10.40;99.90
7399;DHT22;3740;50.700;7.184;2023-11-21T03:52:22;10.40;99.90
7399;DHT22;3740;50.700;7.184;2023-11-21T03:54:47;10.40;99.90
7399;DHT22;3740;50.700;7.184;2023-11-21T03:57:13;10.40;99.90
7399;DHT22;3740;50.700;7.184;2023-11-21T03:59:42;10.40;99.90
7399;DHT22;3740;50.700;7.184;2023-11-21T04:02:08;10.40;99.90
7399;DHT22;3740;50.700;7.184;2023-11-21T04:04:35;10.40;99.90
7399;DHT22;3740;50.700;7.184;2023-11-21T04:07:00;10.40;99.90
7399;DHT22;3740;50.700;7.184;2023-11-21T04:09:26;10.40;99.90
7399;DHT22;3740;50.700;7.184;2023-11-21T04:11:52;10.40;99.90
7399;DHT22;3740;50.700;7.184;2023-11-21T04:14:18;10.40;99.90
7399;DHT22;3740;50.700;7.184;2023-11-21T04:16:44;10.40;99.90
7399;DHT22;3740;50.700;7.184;2023-11-21T04:19:10;10.40;99.90
7399;DHT22;3740;50.700;7.184;2023-11-21T04:21:36;10.40;99.90
7399;DHT22;3740;50.700;7.184;2023-11-21T04:24:02;10.40;99.90
7399;DHT22;3740;50.700;7.184;2023-11-21T04:26:28;10.40;99.90
7399;DHT22;3740;50.700;7.184;2023-11-21T04:28:53;10.40;99.90
7399;DHT22;3740;50.700;7.184;2023-11-21T04:31:19;10.40;99.90
7399;DHT22;3740;50.700;7.184;2023-11-21T04:33:44;10.50;99.90
7399;DHT22;3740;50.700;7.184;2023-11-21T04:36:10;10.40;99.90
7399;DHT22;3740;50.700;7.184;2023-11-21T04:38:36;10.50;99.90
7399;DHT22;3740;50.700;7.184;2023-11-21T04:41:01;10.40;99.90
7399;DHT22;3740;50.700;7.184;2023-11-21T04:43:27;10.40;99.90
7399;DHT22;3740;50.700;7.184;2023-11-21T04:45:54;10.40;99.90
7399;DHT22;3740;50.700;7.184;2023-11-21T04:48:20;10.40;99.90
7399;DHT22;3740;50.700;7.184;2023-11-21T04:50:45;10.40;99.90
7399;DHT22;3740;50.700;7.184;2023-11-21T04:53:11;10.50;99.90
7399;DHT22;3740;50.700;7.184;2023-11-21T04:55:40;10.50;99.90
7399;DHT22;3740;50.700;7.184;2023-11-21T04:58:05;10.50;99.90
7399;DHT22;3740;50.700;7.184;2023-11-21T05:00:31;10.50;99.90
7399;DHT22;3740;50.700;7.184;2023-11-21T05:02:57;10.50;99.90
7399;DHT22;3740;50.700;7.184;2023-11-21T05:05:22;10.50;99.90
7399;DHT22;3740;50.700;7.184;2023-11-21T05:07:49;10.50;99.90
7399;DHT22;3740;50.700;7.184;2023-11-21T05:10:15;10.50;99.90
7399;DHT22;3740;50.700;7.184;2023-11-21T05:12:41;10.50;99.90
7399;DHT22;3740;50.700;7.184;2023-11-21T05:15:08;10.50;99.90
7399;DHT22;3740;50.700;7.184;2023-11-21T05:17:37;10.50;99.90
7399;DHT22;3740;50.700;7.184;2023-11-21T05:20:04;10.50;99.90
7399;DHT22;3740;50.700;7.184;2023-11-21T05:22:34;10.50;99.90
7399;DHT22;3740;50.700;7.184;2023-11-21T05:25:00;10.50;99.90
7399;DHT22;3740;50.700;7.184;2023-11-21T05:27:26;10.50;99.90
7399;DHT22;3740;50.700;7.184;2023-11-21T05:29:51;10.50;99.90
7399;DHT22;3740;50.700;7.184;2023-11-21T05:32:17;10.50;99.90
7399;DHT22;3740;50.700;7.184;2023-11-21T05:34:43;10.50;99.90
7399;DHT22;3740;50.700;7.184;2023-11-21T05:37:08;10.50;99.90
7399;DHT22;3740;50.700;7.184;2023-11-21T05:39:34;10.50;99.90
7399;DHT22;3740;50.700;7.184;2023-11-21T05:42:01;10.50;99.90
7399;DHT22;3740;50.700;7.184;2023-11-21T05:44:26;10.50;99.90
7399;DHT22;3740;50.700;7.184;2023-11-21T05:46:52;10.50;99.90
7399;DHT22;3740;50.700;7.184;2023-11-21T05:49:18;10.50;99.90
7399;DHT22;3740;50.700;7.184;2023-11-21T05:51:47;10.50;99.90
7399;DHT22;3740;50.700;7.184;2023-11-21T05:54:12;10.60;99.90
7399;DHT22;3740;50.700;7.184;2023-11-21T05:56:38;10.60;99.90
7399;DHT22;3740;50.700;7.184;2023-11-21T05:59:03;10.60;99.90
7399;DHT22;3740;50.700;7.184;2023-11-21T06:01:29;10.60;99.90
7399;DHT22;3740;50.700;7.184;2023-11-21T06:03:54;10.60;99.90
7399;DHT22;3740;50.700;7.184;2023-11-21T06:06:21;10.60;99.90
7399;DHT22;3740;50.700;7.184;2023-11-21T06:08:48;10.60;99.90
7399;DHT22;3740;50.700;7.184;2023-11-21T06:11:14;10.60;99.90
7399;DHT22;3740;50.700;7.184;2023-11-21T06:13:40;10.60;99.90
7399;DHT22;3740;50.700;7.184;2023-11-21T06:16:06;10.60;99.90
7399;DHT22;3740;50.700;7.184;2023-11-21T06:18:31;10.60;99.90
7399;DHT22;3740;50.700;7.184;2023-11-21T06:20:57;10.50;99.90
7399;DHT22;3740;50.700;7.184;2023-11-21T06:23:23;10.60;99.90
7399;DHT22;3740;50.700;7.184;2023-11-21T06:25:49;10.50;99.90
7399;DHT22;3740;50.700;7.184;2023-11-21T06:28:14;10.60;99.90
7399;DHT22;3740;50.700;7.184;2023-11-21T06:30:43;10.60;99.90
7399;DHT22;3740;50.700;7.184;2023-11-21T06:33:09;10.60;99.90
7399;DHT22;3740;50.700;7.184;2023-11-21T06:35:35;10.60;99.90
7399;DHT22;3740;50.700;7.184;2023-11-21T06:38:00;10.60;99.90
7399;DHT22;3740;50.700;7.184;2023-11-21T06:40:26;10.60;99.90
7399;DHT22;3740;50.700;7.184;2023-11-21T06:42:52;10.60;99.90
7399;DHT22;3740;50.700;7.184;2023-11-21T06:45:17;10.60;99.90
7399;DHT22;3740;50.700;7.184;2023-11-21T06:47:43;10.60;99.90
7399;DHT22;3740;50.700;7.184;2023-11-21T06:50:09;10.60;99.90
7399;DHT22;3740;50.700;7.184;2023-11-21T06:52:34;10.60;99.90
7399;DHT22;3740;50.700;7.184;2023-11-21T06:55:00;10.60;99.90
7399;DHT22;3740;50.700;7.184;2023-11-21T06:57:26;10.60;99.90
7399;DHT22;3740;50.700;7.184;2023-11-21T06:59:52;10.60;99.90
7399;DHT22;3740;50.700;7.184;2023-11-21T07:02:17;10.60;99.90
7399;DHT22;3740;50.700;7.184;2023-11-21T07:04:45;10.60;99.90
7399;DHT22;3740;50.700;7.184;2023-11-21T07:07:11;10.60;99.90
7399;DHT22;3740;50.700;7.184;2023-11-21T07:09:37;10.60;99.90
7399;DHT22;3740;50.700;7.184;2023-11-21T07:12:03;10.70;99.90
7399;DHT22;3740;50.700;7.184;2023-11-21T07:14:31;10.60;99.90
7399;DHT22;3740;50.700;7.184;2023-11-21T07:16:57;10.60;99.90
7399;DHT22;3740;50.700;7.184;2023-11-21T07:19:23;10.60;99.90
7399;DHT22;3740;50.700;7.184;2023-11-21T07:21:48;10.60;99.90
7399;DHT22;3740;50.700;7.184;2023-11-21T07:24:18;10.60;99.90
7399;DHT22;3740;50.700;7.184;2023-11-21T07:26:43;10.60;99.90
7399;DHT22;3740;50.700;7.184;2023-11-21T07:29:09;10.60;99.90
7399;DHT22;3740;50.700;7.184;2023-11-21T07:31:34;10.60;99.90
7399;DHT22;3740;50.700;7.184;2023-11-21T07:34:00;10.60;99.90
7399;DHT22;3740;50.700;7.184;2023-11-21T07:36:26;10.60;99.90
7399;DHT22;3740;50.700;7.184;2023-11-21T07:38:52;10.60;99.90
7399;DHT22;3740;50.700;7.184;2023-11-21T07:41:18;10.60;99.90
7399;DHT22;3740;50.700;7.184;2023-11-21T07:43:44;10.60;99.90
7399;DHT22;3740;50.700;7.184;2023-11-21T07:46:10;10.60;99.90
7399;DHT22;3740;50.700;7.184;2023-11-21T07:48:38;10.60;99.90
7399;DHT22;3740;50.700;7.184;2023-11-21T07:51:04;10.60;99.90
7399;DHT22;3740;50.700;7.184;2023-11-21T07:53:30;10.60;99.90
7399;DHT22;3740;50.700;7.184;2023-11-21T07:56:06;10.50;99.90
7399;DHT22;3740;50.700;7.184;2023-11-21T07:58:34;10.50;99.90
7399;DHT22;3740;50.700;7.184;2023-11-21T08:01:01;10.60;99.90
7399;DHT22;3740;50.700;7.184;2023-11-21T08:03:27;10.60;99.90
7399;DHT22;3740;50.700;7.184;2023-11-21T08:05:53;10.70;99.90
7399;DHT22;3740;50.700;7.184;2023-11-21T08:08:19;10.70;99.90
7399;DHT22;3740;50.700;7.184;2023-11-21T08:10:45;10.80;99.90
7399;DHT22;3740;50.700;7.184;2023-11-21T08:13:14;10.80;99.90
7399;DHT22;3740;50.700;7.184;2023-11-21T08:15:41;10.80;99.90
7399;DHT22;3740;50.700;7.184;2023-11-21T08:18:11;10.90;99.90
7399;DHT22;3740;50.700;7.184;2023-11-21T08:20:38;10.80;99.90
7399;DHT22;3740;50.700;7.184;2023-11-21T08:23:05;10.90;99.90
7399;DHT22;3740;50.700;7.184;2023-11-21T08:25:31;10.90;99.90
7399;DHT22;3740;50.700;7.184;2023-11-21T08:27:57;11.00;99.90
7399;DHT22;3740;50.700;7.184;2023-11-21T08:30:23;11.00;99.90
7399;DHT22;3740;50.700;7.184;2023-11-21T08:32:52;11.10;99.90
7399;DHT22;3740;50.700;7.184;2023-11-21T08:35:19;11.20;99.90
7399;DHT22;3740;50.700;7.184;2023-11-21T08:37:59;11.30;99.90
7399;DHT22;3740;50.700;7.184;2023-11-21T08:40:28;11.30;99.90
7399;DHT22;3740;50.700;7.184;2023-11-21T08:42:57;11.30;99.90
7399;DHT22;3740;50.700;7.184;2023-11-21T08:45:24;11.30;99.90
7399;DHT22;3740;50.700;7.184;2023-11-21T08:47:51;11.30;99.90
7399;DHT22;3740;50.700;7.184;2023-11-21T08:50:17;11.30;99.90
7399;DHT22;3740;50.700;7.184;2023-11-21T08:52:44;11.30;99.90
7399;DHT22;3740;50.700;7.184;2023-11-21T08:55:09;11.30;99.90
7399;DHT22;3740;50.700;7.184;2023-11-21T08:57:38;11.20;99.90
7399;DHT22;3740;50.700;7.184;2023-11-21T09:00:04;11.00;99.90
7399;DHT22;3740;50.700;7.184;2023-11-21T09:02:33;11.00;99.90
7399;DHT22;3740;50.700;7.184;2023-11-21T09:05:03;11.00;99.90
7399;DHT22;3740;50.700;7.184;2023-11-21T09:07:29;11.00;99.90
7399;DHT22;3740;50.700;7.184;2023-11-21T09:09:55;11.10;99.90
7399;DHT22;3740;50.700;7.184;2023-11-21T09:12:20;11.20;99.90
7399;DHT22;3740;50.700;7.184;2023-11-21T09:14:47;11.30;99.90
7399;DHT22;3740;50.700;7.184;2023-11-21T09:17:12;11.30;99.90
7399;DHT22;3740;50.700;7.184;2023-11-21T09:19:38;11.40;99.90
7399;DHT22;3740;50.700;7.184;2023-11-21T09:22:04;11.30;99.90
7399;DHT22;3740;50.700;7.184;2023-11-21T09:24:31;11.00;99.90
7399;DHT22;3740;50.700;7.184;2023-11-21T09:26:57;10.80;99.90
7399;DHT22;3740;50.700;7.184;2023-11-21T09:29:22;10.60;99.90
7399;DHT22;3740;50.700;7.184;2023-11-21T09:31:48;10.50;99.90
7399;DHT22;3740;50.700;7.184;2023-11-21T09:34:16;10.60;99.90
7399;DHT22;3740;50.700;7.184;2023-11-21T09:36:45;10.60;99.90
7399;DHT22;3740;50.700;7.184;2023-11-21T09:39:10;10.50;99.90
7399;DHT22;3740;50.700;7.184;2023-11-21T09:41:54;10.60;99.90
7399;DHT22;3740;50.700;7.184;2023-11-21T09:44:48;10.50;99.90
7399;DHT22;3740;50.700;7.184;2023-11-21T09:47:17;10.50;99.90
7399;DHT22;3740;50.700;7.184;2023-11-21T09:49:49;10.60;99.90
7399;DHT22;3740;50.700;7.184;2023-11-21T09:52:26;10.60;99.90
7399;DHT22;3740;50.700;7.184;2023-11-21T09:54:53;10.60;99.90
7399;DHT22;3740;50.700;7.184;2023-11-21T09:57:23;10.70;99.90
7399;DHT22;3740;50.700;7.184;2023-11-21T09:59:54;10.90;99.90
7399;DHT22;3740;50.700;7.184;2023-11-21T10:02:28;11.00;99.90
7399;DHT22;3740;50.700;7.184;2023-11-21T10:04:55;11.00;99.90
7399;DHT22;3740;50.700;7.184;2023-11-21T10:07:22;11.10;99.90
7399;DHT22;3740;50.700;7.184;2023-11-21T10:09:48;11.10;99.90
7399;DHT22;3740;50.700;7.184;2023-11-21T10:12:16;11.20;99.90
7399;DHT22;3740;50.700;7.184;2023-11-21T10:14:42;11.30;99.90
7399;DHT22;3740;50.700;7.184;2023-11-21T10:17:10;11.30;99.90
7399;DHT22;3740;50.700;7.184;2023-11-21T10:19:38;11.30;99.90
7399;DHT22;3740;50.700;7.184;2023-11-21T10:22:05;11.30;99.90
7399;DHT22;3740;50.700;7.184;2023-11-21T10:24:32;11.40;99.90
7399;DHT22;3740;50.700;7.184;2023-11-21T10:26:58;11.30;99.90
7399;DHT22;3740;50.700;7.184;2023-11-21T10:29:24;11.40;99.90
7399;DHT22;3740;50.700;7.184;2023-11-21T10:31:52;11.50;99.90
7399;DHT22;3740;50.700;7.184;2023-11-21T10:34:20;11.60;99.90
7399;DHT22;3740;50.700;7.184;2023-11-21T10:36:47;11.60;99.90
7399;DHT22;3740;50.700;7.184;2023-11-21T10:39:21;11.70;99.90
7399;DHT22;3740;50.700;7.184;2023-11-21T10:41:49;11.70;99.90
7399;DHT22;3740;50.700;7.184;2023-11-21T10:44:17;11.70;99.90
7399;DHT22;3740;50.700;7.184;2023-11-21T10:46:48;11.70;99.90
7399;DHT22;3740;50.700;7.184;2023-11-21T10:49:17;11.70;99.90
7399;DHT22;3740;50.700;7.184;2023-11-21T10:51:44;11.70;99.90
7399;DHT22;3740;50.700;7.184;2023-11-21T10:54:09;11.70;99.90
7399;DHT22;3740;50.700;7.184;2023-11-21T10:56:36;11.70;99.90
7399;DHT22;3740;50.700;7.184;2023-11-21T10:59:09;11.70;99.90
7399;DHT22;3740;50.700;7.184;2023-11-21T11:01:35;11.70;99.90
7399;DHT22;3740;50.700;7.184;2023-11-21T11:04:02;11.70;99.90
7399;DHT22;3740;50.700;7.184;2023-11-21T11:06:30;11.80;99.90
7399;DHT22;3740;50.700;7.184;2023-11-21T11:08:58;11.70;99.90
7399;DHT22;3740;50.700;7.184;2023-11-21T11:11:25;11.80;99.90
7399;DHT22;3740;50.700;7.184;2023-11-21T11:13:52;11.90;99.90
7399;DHT22;3740;50.700;7.184;2023-11-21T11:16:18;11.80;99.90
7399;DHT22;3740;50.700;7.184;2023-11-21T11:18:44;11.70;99.90
7399;DHT22;3740;50.700;7.184;2023-11-21T11:21:27;11.70;99.90
7399;DHT22;3740;50.700;7.184;2023-11-21T11:26:53;11.90;99.90
7399;DHT22;3740;50.700;7.184;2023-11-21T11:29:46;11.90;99.90
7399;DHT22;3740;50.700;7.184;2023-11-21T11:32:49;12.00;99.90
7399;DHT22;3740;50.700;7.184;2023-11-21T11:35:49;12.00;99.90
7399;DHT22;3740;50.700;7.184;2023-11-21T11:38:17;11.80;99.90
7399;DHT22;3740;50.700;7.184;2023-11-21T11:40:47;11.90;99.90
7399;DHT22;3740;50.700;7.184;2023-11-21T11:43:13;11.90;99.90
7399;DHT22;3740;50.700;7.184;2023-11-21T11:45:39;11.90;99.90
7399;DHT22;3740;50.700;7.184;2023-11-21T11:48:08;11.90;99.90
7399;DHT22;3740;50.700;7.184;2023-11-21T11:50:42;11.70;99.90
7399;DHT22;3740;50.700;7.184;2023-11-21T11:53:14;11.60;99.90
7399;DHT22;3740;50.700;7.184;2023-11-21T11:55:40;11.70;99.90
7399;DHT22;3740;50.700;7.184;2023-11-21T11:58:06;11.70;99.90
7399;DHT22;3740;50.700;7.184;2023-11-21T12:03:01;11.70;99.90
7399;DHT22;3740;50.700;7.184;2023-11-21T12:05:29;11.50;99.90
7399;DHT22;3740;50.700;7.184;2023-11-21T12:08:00;11.40;99.90
7399;DHT22;3740;50.700;7.184;2023-11-21T12:10:29;11.50;99.90
7399;DHT22;3740;50.700;7.184;2023-11-21T12:15:21;11.70;99.90
7399;DHT22;3740;50.700;7.184;2023-11-21T12:17:48;11.70;99.90
7399;DHT22;3740;50.700;7.184;2023-11-21T12:20:18;11.70;99.90
7399;DHT22;3740;50.700;7.184;2023-11-21T12:22:45;11.70;99.90
7399;DHT22;3740;50.700;7.184;2023-11-21T12:25:21;11.80;99.90
7399;DHT22;3740;50.700;7.184;2023-11-21T12:27:48;11.90;99.90
7399;DHT22;3740;50.700;7.184;2023-11-21T12:30:19;11.90;99.90
7399;DHT22;3740;50.700;7.184;2023-11-21T12:32:47;11.90;99.90
7399;DHT22;3740;50.700;7.184;2023-11-21T12:35:13;11.90;99.90
7399;DHT22;3740;50.700;7.184;2023-11-21T12:37:40;11.90;99.90
7399;DHT22;3740;50.700;7.184;2023-11-21T12:40:08;11.90;99.90
7399;DHT22;3740;50.700;7.184;2023-11-21T12:42:39;11.80;99.90
7399;DHT22;3740;50.700;7.184;2023-11-21T12:47:44;11.70;99.90
7399;DHT22;3740;50.700;7.184;2023-11-21T12:50:12;11.60;99.90
7399;DHT22;3740;50.700;7.184;2023-11-21T12:52:46;11.40;99.90
7399;DHT22;3740;50.700;7.184;2023-11-21T12:55:20;11.50;99.90
7399;DHT22;3740;50.700;7.184;2023-11-21T12:57:52;11.50;99.90
7399;DHT22;3740;50.700;7.184;2023-11-21T13:00:27;11.60;99.90
7399;DHT22;3740;50.700;7.184;2023-11-21T13:02:54;11.70;99.90
7399;DHT22;3740;50.700;7.184;2023-11-21T13:05:37;11.80;99.90
7399;DHT22;3740;50.700;7.184;2023-11-21T13:08:10;11.70;99.90
7399;DHT22;3740;50.700;7.184;2023-11-21T13:10:40;11.60;99.90
7399;DHT22;3740;50.700;7.184;2023-11-21T13:13:09;11.70;99.90
7399;DHT22;3740;50.700;7.184;2023-11-21T13:15:39;11.70;99.90
7399;DHT22;3740;50.700;7.184;2023-11-21T13:18:06;11.70;99.90
7399;DHT22;3740;50.700;7.184;2023-11-21T13:20:32;11.70;99.90
7399;DHT22;3740;50.700;7.184;2023-11-21T13:22:58;11.70;99.90
7399;DHT22;3740;50.700;7.184;2023-11-21T13:25:30;11.50;99.90
7399;DHT22;3740;50.700;7.184;2023-11-21T13:28:00;11.50;99.90
7399;DHT22;3740;50.700;7.184;2023-11-21T13:30:28;11.70;99.90
7399;DHT22;3740;50.700;7.184;2023-11-21T13:33:04;11.80;99.90
7399;DHT22;3740;50.700;7.184;2023-11-21T13:35:37;11.90;99.90
7399;DHT22;3740;50.700;7.184;2023-11-21T13:38:08;12.00;99.90
7399;DHT22;3740;50.700;7.184;2023-11-21T13:40:35;12.00;99.90
7399;DHT22;3740;50.700;7.184;2023-11-21T13:43:08;12.00;99.90
7399;DHT22;3740;50.700;7.184;2023-11-21T13:45:39;12.10;99.90
7399;DHT22;3740;50.700;7.184;2023-11-21T13:48:05;12.10;99.90
7399;DHT22;3740;50.700;7.184;2023-11-21T13:50:38;12.10;99.90
7399;DHT22;3740;50.700;7.184;2023-11-21T13:53:04;12.00;99.90
7399;DHT22;3740;50.700;7.184;2023-11-21T13:55:44;11.90;99.90
7399;DHT22;3740;50.700;7.184;2023-11-21T13:58:11;11.90;99.90
7399;DHT22;3740;50.700;7.184;2023-11-21T14:00:42;11.90;99.90
7399;DHT22;3740;50.700;7.184;2023-11-21T14:03:13;11.80;99.90
7399;DHT22;3740;50.700;7.184;2023-11-21T14:05:46;11.60;99.90
7399;DHT22;3740;50.700;7.184;2023-11-21T14:08:20;11.70;99.90
7399;DHT22;3740;50.700;7.184;2023-11-21T14:10:49;11.70;99.90
7399;DHT22;3740;50.700;7.184;2023-11-21T14:13:26;11.70;99.90
7399;DHT22;3740;50.700;7.184;2023-11-21T14:15:52;11.70;99.90
7399;DHT22;3740;50.700;7.184;2023-11-21T14:18:24;11.60;99.90
7399;DHT22;3740;50.700;7.184;2023-11-21T14:20:57;11.50;99.90
7399;DHT22;3740;50.700;7.184;2023-11-21T14:23:22;11.50;99.90
7399;DHT22;3740;50.700;7.184;2023-11-21T14:25:48;11.50;99.90
7399;DHT22;3740;50.700;7.184;2023-11-21T14:28:15;11.50;99.90
7399;DHT22;3740;50.700;7.184;2023-11-21T14:30:41;11.50;99.90
7399;DHT22;3740;50.700;7.184;2023-11-21T14:33:08;11.40;99.90
7399;DHT22;3740;50.700;7.184;2023-11-21T14:35:35;11.30;99.90
7399;DHT22;3740;50.700;7.184;2023-11-21T14:38:01;11.30;99.90
7399;DHT22;3740;50.700;7.184;2023-11-21T14:40:33;11.30;99.90
7399;DHT22;3740;50.700;7.184;2023-11-21T14:43:04;11.30;99.90
7399;DHT22;3740;50.700;7.184;2023-11-21T14:45:33;11.40;99.90
7399;DHT22;3740;50.700;7.184;2023-11-21T14:48:02;11.30;99.90
7399;DHT22;3740;50.700;7.184;2023-11-21T14:50:42;11.20;99.90
7399;DHT22;3740;50.700;7.184;2023-11-21T14:53:11;11.20;99.90
7399;DHT22;3740;50.700;7.184;2023-11-21T14:55:38;11.30;99.90
7399;DHT22;3740;50.700;7.184;2023-11-21T14:58:16;11.30;99.90
7399;DHT22;3740;50.700;7.184;2023-11-21T15:00:54;11.30;99.90
7399;DHT22;3740;50.700;7.184;2023-11-21T15:03:24;11.30;99.90
7399;DHT22;3740;50.700;7.184;2023-11-21T15:06:03;11.20;99.90
7399;DHT22;3740;50.700;7.184;2023-11-21T15:08:50;11.20;99.90
7399;DHT22;3740;50.700;7.184;2023-11-21T15:11:35;11.30;99.90
7399;DHT22;3740;50.700;7.184;2023-11-21T15:14:02;11.40;99.90
7399;DHT22;3740;50.700;7.184;2023-11-21T15:16:33;11.40;99.90
7399;DHT22;3740;50.700;7.184;2023-11-21T15:18:58;11.50;99.90
7399;DHT22;3740;50.700;7.184;2023-11-21T15:21:24;11.30;99.90
7399;DHT22;3740;50.700;7.184;2023-11-21T15:23:50;11.20;99.90
7399;DHT22;3740;50.700;7.184;2023-11-21T15:26:16;11.20;99.90
7399;DHT22;3740;50.700;7.184;2023-11-21T15:28:42;11.20;99.90
7399;DHT22;3740;50.700;7.184;2023-11-21T15:31:07;11.30;99.90
7399;DHT22;3740;50.700;7.184;2023-11-21T15:33:34;11.40;99.90
7399;DHT22;3740;50.700;7.184;2023-11-21T15:36:02;11.40;99.90
7399;DHT22;3740;50.700;7.184;2023-11-21T15:38:29;11.30;99.90
7399;DHT22;3740;50.700;7.184;2023-11-21T15:40:55;11.30;99.90
7399;DHT22;3740;50.700;7.184;2023-11-21T15:43:20;11.30;99.90
7399;DHT22;3740;50.700;7.184;2023-11-21T15:45:46;11.30;99.90
7399;DHT22;3740;50.700;7.184;2023-11-21T15:48:11;11.30;99.90
7399;DHT22;3740;50.700;7.184;2023-11-21T15:50:37;11.30;99.90
7399;DHT22;3740;50.700;7.184;2023-11-21T15:53:03;11.40;99.90
7399;DHT22;3740;50.700;7.184;2023-11-21T15:55:32;11.30;99.90
7399;DHT22;3740;50.700;7.184;2023-11-21T15:57:59;11.10;99.90
7399;DHT22;3740;50.700;7.184;2023-11-21T16:00:29;11.00;99.90
7399;DHT22;3740;50.700;7.184;2023-11-21T16:02:54;11.00;99.90
7399;DHT22;3740;50.700;7.184;2023-11-21T16:05:20;11.10;99.90
7399;DHT22;3740;50.700;7.184;2023-11-21T16:07:46;11.10;99.90
7399;DHT22;3740;50.700;7.184;2023-11-21T16:10:11;11.10;99.90
7399;DHT22;3740;50.700;7.184;2023-11-21T16:12:40;11.00;99.90
7399;DHT22;3740;50.700;7.184;2023-11-21T16:15:07;11.00;99.90